createdAt,value
2024-04-14T00:00:15.556Z,97080.41
2024-04-14T00:02:42.539Z,97078.53
2024-04-14T00:05:09.248Z,97076.75
2024-04-14T00:07:38.748Z,97072.91
2024-04-14T00:10:06.661Z,97073.22
2024-04-14T00:12:33.745Z,97075.78
2024-04-14T00:15:00.711Z,97075.31
2024-04-14T00:17:27.577Z,97069.69
2024-04-14T00:19:55.213Z,97070.38
2024-04-14T00:22:23.099Z,97068.25
2024-04-14T00:24:49.896Z,97061.47
2024-04-14T00:27:17.373Z,97068.56
2024-04-14T00:29:44.962Z,97057.44
2024-04-14T00:32:12.629Z,97055.78
2024-04-14T00:34:39.685Z,97066.25
2024-04-14T00:37:09.735Z,97066.47
2024-04-14T00:39:37.269Z,97062.19
2024-04-14T00:42:04.377Z,97062.06
2024-04-14T00:44:31.061Z,97067.44
2024-04-14T00:46:58.501Z,97057.03
2024-04-14T00:49:26.025Z,97060.13
2024-04-14T00:51:55.521Z,97066.31
2024-04-14T00:54:23.496Z,97058.63
2024-04-14T00:56:54.480Z,97056.25
2024-04-14T00:59:21.159Z,97052.53
2024-04-14T01:01:49.336Z,97052.25
2024-04-14T01:04:19.147Z,97054.81
2024-04-14T01:06:46.777Z,97051.88
2024-04-14T01:09:16.498Z,97050.97
2024-04-14T01:11:43.334Z,97050.97
2024-04-14T01:14:09.997Z,97045.31
2024-04-14T01:16:36.683Z,97049.78
2024-04-14T01:19:03.980Z,97047.66
2024-04-14T01:21:31.579Z,97051.81
2024-04-14T01:23:58.580Z,97046.31
2024-04-14T01:26:28.502Z,97044.88
2024-04-14T01:28:55.257Z,97045.91
2024-04-14T01:31:21.960Z,97043.72
2024-04-14T01:33:49.944Z,97050.66
2024-04-14T01:36:18.873Z,97043.81
2024-04-14T01:38:47.092Z,97051.19
2024-04-14T01:41:14.775Z,97042.69
2024-04-14T01:43:43.924Z,97048.28
2024-04-14T01:46:13.619Z,97039.34
2024-04-14T01:48:41.107Z,97041.94
2024-04-14T01:51:08.167Z,97043.44
2024-04-14T01:53:37.592Z,97046.56
2024-04-14T01:56:07.090Z,97053.09
2024-04-14T01:58:34.063Z,97044.56
2024-04-14T02:01:03.324Z,97040.19
2024-04-14T02:03:30.503Z,97039.50
2024-04-14T02:05:58.532Z,97043.50
2024-04-14T02:08:25.251Z,97039.50
2024-04-14T02:10:54.136Z,97040.38
2024-04-14T02:13:22.678Z,97041.31
2024-04-14T02:15:49.763Z,97030.34
2024-04-14T02:18:16.821Z,97034.34
2024-04-14T02:20:43.983Z,97030.91
2024-04-14T02:23:14.930Z,97025.59
2024-04-14T02:25:41.909Z,97038.91
2024-04-14T02:28:08.599Z,97030.06
2024-04-14T02:30:35.925Z,97031.50
2024-04-14T02:33:03.465Z,97036.41
2024-04-14T02:35:30.475Z,97026.47
2024-04-14T02:37:57.424Z,97028.84
2024-04-14T02:40:24.459Z,97030.13
2024-04-14T02:42:51.481Z,97025.16
2024-04-14T02:45:19.000Z,97025.69
2024-04-14T02:47:46.288Z,97023.91
2024-04-14T02:50:18.203Z,97026.13
2024-04-14T02:52:44.939Z,97026.13
2024-04-14T02:55:11.610Z,97023.59
2024-04-14T02:57:38.402Z,97018.69
2024-04-14T03:00:06.174Z,97011.47
2024-04-14T03:02:33.635Z,97018.72
2024-04-14T03:05:00.874Z,97018.91
2024-04-14T03:07:27.900Z,97017.56
2024-04-14T03:09:55.669Z,97012.53
2024-04-14T03:12:22.347Z,97013.56
2024-04-14T03:14:49.101Z,97014.28
2024-04-14T03:17:18.006Z,97009.91
2024-04-14T03:19:44.728Z,97014.44
2024-04-14T03:22:11.909Z,97009.72
2024-04-14T03:24:38.942Z,97005.97
2024-04-14T03:27:05.637Z,97007.47
2024-04-14T03:29:32.294Z,97009.63
2024-04-14T03:31:59.619Z,96998.41
2024-04-14T03:34:26.681Z,97005.09
2024-04-14T03:36:53.386Z,97001.63
2024-04-14T03:39:20.933Z,97001.41
2024-04-14T03:41:49.764Z,97005.22
2024-04-14T03:44:17.622Z,97003.38
2024-04-14T03:46:44.899Z,97000.66
2024-04-14T03:49:11.666Z,97003.25
2024-04-14T03:51:41.229Z,97008.22
2024-04-14T03:54:09.868Z,97008.88
2024-04-14T03:56:36.946Z,97002.16
2024-04-14T03:59:04.149Z,97005.13
2024-04-14T04:01:32.212Z,96996.75
2024-04-14T04:03:59.261Z,97001.50
2024-04-14T04:06:33.585Z,96995.50
2024-04-14T04:09:00.937Z,96997.78
2024-04-14T04:11:27.962Z,96996.91
2024-04-14T04:14:15.156Z,97000.50
2024-04-14T04:17:02.168Z,97001.41
2024-04-14T04:19:49.155Z,96997.66
2024-04-14T04:22:17.284Z,97000.72
2024-04-14T04:24:43.991Z,97000.84
2024-04-14T04:27:11.087Z,96998.84
2024-04-14T04:29:37.749Z,97007.09
2024-04-14T04:32:04.750Z,97005.16
2024-04-14T04:34:31.562Z,96999.81
2024-04-14T04:36:59.752Z,97004.50
2024-04-14T04:39:30.304Z,97002.63
2024-04-14T04:42:00.214Z,97003.84
2024-04-14T04:44:26.899Z,97002.34
2024-04-14T04:46:56.937Z,97002.09
2024-04-14T04:49:25.115Z,97009.78
2024-04-14T04:51:53.699Z,97009.75
2024-04-14T04:54:24.067Z,97006.56
2024-04-14T04:56:51.130Z,97006.38
2024-04-14T04:59:17.801Z,97000.78
2024-04-14T05:01:48.743Z,97008.59
2024-04-14T05:04:16.430Z,97007.34
2024-04-14T05:06:44.143Z,97006.78
2024-04-14T05:09:11.497Z,97001.38
2024-04-14T05:11:41.296Z,97013.47
2024-04-14T05:14:15.669Z,97010.84
2024-04-14T05:16:44.544Z,97008.13
2024-04-14T05:19:18.992Z,97013.59
2024-04-14T05:21:45.906Z,97015.78
2024-04-14T05:24:12.818Z,97012.06
2024-04-14T05:26:40.797Z,97004.72
2024-04-14T05:29:07.521Z,97006.84
2024-04-14T05:31:36.900Z,97004.13
2024-04-14T05:34:05.162Z,97005.63
2024-04-14T05:36:32.245Z,97002.53
2024-04-14T05:38:59.949Z,97001.19
2024-04-14T05:41:26.915Z,97004.41
2024-04-14T05:43:54.469Z,97000.53
2024-04-14T05:46:22.342Z,96998.81
2024-04-14T05:48:49.386Z,97003.28
2024-04-14T05:51:16.370Z,97004.50
2024-04-14T05:53:43.318Z,97001.00
2024-04-14T05:56:10.088Z,97008.69
2024-04-14T05:58:37.628Z,97002.28
2024-04-14T06:01:06.640Z,97011.66
2024-04-14T06:03:36.349Z,97007.94
2024-04-14T06:06:03.339Z,97005.91
2024-04-14T06:08:30.084Z,97004.53
2024-04-14T06:11:00.326Z,97000.97
2024-04-14T06:13:52.851Z,97000.09
2024-04-14T06:16:19.917Z,97008.78
2024-04-14T06:18:46.773Z,97016.78
2024-04-14T06:21:13.505Z,97010.50
2024-04-14T06:23:41.083Z,97010.38
2024-04-14T06:26:11.120Z,97011.88
2024-04-14T06:28:37.862Z,97015.75
2024-04-14T06:31:04.756Z,97006.97
2024-04-14T06:33:31.777Z,97010.09
2024-04-14T06:36:01.091Z,97003.00
2024-04-14T06:38:28.145Z,97004.13
2024-04-14T06:40:54.933Z,97005.81
2024-04-14T06:43:24.195Z,97002.84
2024-04-14T06:45:50.949Z,96997.91
2024-04-14T06:48:17.828Z,97001.09
2024-04-14T06:50:44.616Z,96997.75
2024-04-14T06:53:11.575Z,96996.34
2024-04-14T06:55:38.444Z,96987.88
2024-04-14T06:58:05.565Z,96997.56
2024-04-14T07:00:32.632Z,97000.25
2024-04-14T07:02:59.953Z,97002.25
2024-04-14T07:05:26.568Z,96996.81
2024-04-14T07:07:56.379Z,96999.63
2024-04-14T07:10:23.424Z,97003.53
2024-04-14T07:12:50.504Z,96998.88
2024-04-14T07:15:23.813Z,96992.66
2024-04-14T07:17:53.624Z,96987.19
2024-04-14T07:20:24.034Z,96978.44
2024-04-14T07:22:50.802Z,96988.63
2024-04-14T07:25:18.350Z,96984.53
2024-04-14T07:27:48.235Z,96981.44
2024-04-14T07:30:15.449Z,96982.91
2024-04-14T07:32:42.590Z,96984.41
2024-04-14T07:35:10.235Z,96980.16
2024-04-14T07:37:39.640Z,96976.91
2024-04-14T07:40:06.650Z,96983.69
2024-04-14T07:42:33.332Z,96985.88
2024-04-14T07:45:02.791Z,96981.94
2024-04-14T07:47:30.296Z,96980.56
2024-04-14T07:53:13.880Z,96984.78
2024-04-14T07:55:40.590Z,96977.22
2024-04-14T07:58:11.041Z,96983.53
2024-04-14T08:00:41.660Z,96977.84
2024-04-14T08:03:08.609Z,96977.53
2024-04-14T08:05:37.647Z,96974.81
2024-04-14T08:08:08.265Z,96975.63
2024-04-14T08:10:34.968Z,96975.84
2024-04-14T08:13:01.906Z,96971.16
2024-04-14T08:15:28.641Z,96972.13
2024-04-14T08:17:55.305Z,96974.38
2024-04-14T08:20:22.386Z,96972.44
2024-04-14T08:22:49.178Z,96971.41
2024-04-14T08:25:15.871Z,96969.75
2024-04-14T08:27:42.856Z,96965.19
2024-04-14T08:30:11.401Z,96965.59
2024-04-14T08:32:38.141Z,96965.72
2024-04-14T08:35:05.144Z,96964.84
2024-04-14T08:37:32.574Z,96970.22
2024-04-14T08:39:59.352Z,96961.31
2024-04-14T08:42:26.336Z,96973.69
2024-04-14T08:44:53.343Z,96965.03
2024-04-14T08:47:20.933Z,96967.25
2024-04-14T08:49:47.620Z,96961.06
2024-04-14T08:52:15.014Z,96953.78
2024-04-14T08:54:44.263Z,96954.66
2024-04-14T08:57:18.466Z,96948.03
2024-04-14T08:59:52.689Z,96943.28
2024-04-14T09:02:20.188Z,96940.81
2024-04-14T09:04:46.872Z,96942.22
2024-04-14T09:07:13.617Z,96939.78
2024-04-14T09:09:40.295Z,96942.09
2024-04-14T09:12:06.976Z,96947.34
2024-04-14T09:14:33.926Z,96941.56
2024-04-14T09:17:01.429Z,96937.97
2024-04-14T09:19:29.196Z,96935.72
2024-04-14T09:21:56.542Z,96939.69
2024-04-14T09:24:23.264Z,96936.50
2024-04-14T09:26:51.029Z,96931.13
2024-04-14T09:29:20.240Z,96934.25
2024-04-14T09:31:47.230Z,96932.41
2024-04-14T09:34:15.142Z,96928.44
2024-04-14T09:36:44.187Z,96933.81
2024-04-14T09:39:10.839Z,96930.84
2024-04-14T09:41:37.813Z,96923.53
2024-04-14T09:44:07.252Z,96924.63
2024-04-14T09:46:36.528Z,96927.00
2024-04-14T09:49:03.528Z,96921.09
2024-04-14T09:51:30.923Z,96923.53
2024-04-14T09:53:58.018Z,96911.31
2024-04-14T09:56:25.455Z,96916.84
2024-04-14T09:58:52.437Z,96912.28
2024-04-14T10:01:19.309Z,96912.56
2024-04-14T10:03:46.176Z,96909.13
2024-04-14T10:06:13.201Z,96904.88
2024-04-14T10:08:39.912Z,96909.38
2024-04-14T10:11:07.834Z,96907.59
2024-04-14T10:13:35.354Z,96902.31
2024-04-14T10:18:42.463Z,96896.91
2024-04-14T10:21:11.236Z,96896.59
2024-04-14T10:23:38.353Z,96895.94
2024-04-14T10:26:05.009Z,96890.16
2024-04-14T10:28:32.067Z,96885.75
2024-04-14T10:30:58.901Z,96889.50
2024-04-14T10:33:33.277Z,96887.97
2024-04-14T10:36:00.496Z,96881.53
2024-04-14T10:38:27.461Z,96883.16
2024-04-14T10:40:54.461Z,96883.16
2024-04-14T10:43:21.551Z,96868.47
2024-04-14T10:45:48.547Z,96865.78
2024-04-14T10:48:15.228Z,96868.72
2024-04-14T10:50:44.040Z,96861.63
2024-04-14T10:53:14.359Z,96864.25
2024-04-14T10:55:41.291Z,96865.16
2024-04-14T10:58:15.279Z,96854.75
2024-04-14T11:00:42.363Z,96857.19
2024-04-14T11:03:09.352Z,96855.19
2024-04-14T11:05:36.140Z,96851.19
2024-04-14T11:08:02.953Z,96850.28
2024-04-14T11:10:29.983Z,96842.50
2024-04-14T11:12:56.979Z,96837.94
2024-04-14T11:15:23.999Z,96830.94
2024-04-14T11:17:53.828Z,96832.47
2024-04-14T11:20:20.556Z,96829.00
2024-04-14T11:22:47.609Z,96823.41
2024-04-14T11:25:14.233Z,96821.69
2024-04-14T11:27:41.027Z,96820.22
2024-04-14T11:30:07.735Z,96816.03
2024-04-14T11:32:37.483Z,96817.75
2024-04-14T11:35:04.307Z,96816.03
2024-04-14T11:37:38.404Z,96811.63
2024-04-14T11:40:06.001Z,96801.22
2024-04-14T11:42:33.961Z,96801.03
2024-04-14T11:45:00.942Z,96798.25
2024-04-14T11:47:27.639Z,96793.41
2024-04-14T11:49:54.431Z,96792.25
2024-04-14T11:52:21.278Z,96783.81
2024-04-14T11:54:47.968Z,96774.00
2024-04-14T11:57:14.681Z,96770.72
2024-04-14T11:59:41.397Z,96771.94
2024-04-14T12:02:08.434Z,96771.25
2024-04-14T12:04:35.180Z,96758.25
2024-04-14T12:07:01.919Z,96764.75
2024-04-14T12:09:28.693Z,96757.34
2024-04-14T12:11:56.342Z,96755.41
2024-04-14T12:14:23.040Z,96753.72
2024-04-14T12:16:52.331Z,96754.94
2024-04-14T12:19:19.285Z,96749.41
2024-04-14T12:21:47.154Z,96748.22
2024-04-14T12:24:13.915Z,96741.69
2024-04-14T12:26:40.548Z,96732.88
2024-04-14T12:29:07.263Z,96732.94
2024-04-14T12:31:34.446Z,96729.56
2024-04-14T12:34:05.058Z,96721.13
2024-04-14T12:36:31.753Z,96717.41
2024-04-14T12:38:58.471Z,96722.47
2024-04-14T12:41:25.142Z,96710.88
2024-04-14T12:43:53.688Z,96705.03
2024-04-14T12:46:23.522Z,96701.88
2024-04-14T12:48:50.287Z,96700.28
2024-04-14T12:51:16.940Z,96692.34
2024-04-14T12:53:43.622Z,96690.31
2024-04-14T12:56:10.300Z,96677.09
2024-04-14T12:58:37.038Z,96676.81
2024-04-14T13:13:50.817Z,96647.56
2024-04-14T13:34:43.669Z,96617.06
2024-04-14T13:37:10.483Z,96614.16
2024-04-14T13:39:37.321Z,96614.53
2024-04-14T13:42:05.500Z,96602.47
2024-04-14T13:44:35.065Z,96596.84
2024-04-14T13:47:02.188Z,96594.53
2024-04-14T13:49:32.278Z,96589.00
2024-04-14T13:58:30.855Z,96586.53
2024-04-14T14:00:57.746Z,96573.25
2024-04-14T14:03:24.584Z,96570.31
2024-04-14T14:05:51.420Z,96567.97
2024-04-14T14:08:18.409Z,96564.66
2024-04-14T14:10:45.434Z,96560.59
2024-04-14T14:13:12.638Z,96559.78
2024-04-14T14:15:39.815Z,96557.63
2024-04-14T14:18:07.123Z,96554.16
2024-04-14T14:20:36.238Z,96556.72
2024-04-14T14:23:06.131Z,96545.63
2024-04-14T14:25:32.796Z,96538.00
2024-04-14T14:27:59.854Z,96535.59
2024-04-14T14:30:26.552Z,96533.72
2024-04-14T14:32:54.415Z,96527.22
2024-04-14T14:35:22.394Z,96527.28
2024-04-14T14:37:49.246Z,96525.22
2024-04-14T14:40:16.242Z,96516.34
2024-04-14T14:42:45.997Z,96518.03
2024-04-14T14:45:13.765Z,96521.56
2024-04-14T14:47:41.421Z,96510.31
2024-04-14T14:50:08.194Z,96501.03
2024-04-14T14:52:35.081Z,96506.34
2024-04-14T14:55:03.280Z,96495.84
2024-04-14T14:57:30.130Z,96492.81
2024-04-14T14:59:59.118Z,96488.22
2024-04-14T15:02:27.128Z,96488.22
2024-04-14T15:04:54.425Z,96478.03
2024-04-14T15:07:21.239Z,96486.31
2024-04-14T15:09:49.318Z,96475.16
2024-04-14T15:15:01.683Z,96478.25
2024-04-14T15:23:51.800Z,96466.41
2024-04-14T15:26:18.466Z,96472.44
2024-04-14T15:28:46.120Z,96463.56
2024-04-14T15:31:23.992Z,96463.72
2024-04-14T15:33:50.691Z,96461.84
2024-04-14T15:36:19.662Z,96458.19
2024-04-14T15:38:46.322Z,96455.31
2024-04-14T15:41:13.126Z,96454.44
2024-04-14T15:43:39.747Z,96458.13
2024-04-14T15:46:06.814Z,96454.69
2024-04-14T15:48:33.458Z,96453.09
2024-04-14T15:51:13.548Z,96450.50
2024-04-14T15:53:46.292Z,96444.66
2024-04-14T15:56:13.296Z,96442.81
2024-04-14T15:58:41.004Z,96440.31
2024-04-14T16:01:07.743Z,96437.91
2024-04-14T16:03:34.507Z,96437.44
2024-04-14T16:06:01.497Z,96439.19
2024-04-14T16:08:28.225Z,96426.25
2024-04-14T16:10:54.878Z,96428.72
2024-04-14T16:13:21.610Z,96426.00
2024-04-14T16:15:48.410Z,96420.97
2024-04-14T16:18:18.753Z,96415.38
2024-04-14T16:20:45.874Z,96411.75
2024-04-14T16:23:12.595Z,96419.06
2024-04-14T16:25:39.283Z,96409.00
2024-04-14T16:28:06.335Z,96404.63
2024-04-14T16:30:33.339Z,96398.25
2024-04-14T16:33:00.888Z,96408.31
2024-04-14T16:35:27.595Z,96393.84
2024-04-14T16:37:54.230Z,96397.44
2024-04-14T16:40:20.863Z,96400.22
2024-04-14T16:42:50.049Z,96399.78
2024-04-14T16:45:16.720Z,96389.69
2024-04-14T16:47:43.713Z,96388.59
2024-04-14T16:50:10.574Z,96390.81
2024-04-14T16:52:37.444Z,96386.41
2024-04-14T16:55:04.583Z,96387.16
2024-04-14T16:57:34.352Z,96390.97
2024-04-14T17:00:00.987Z,96383.75
2024-04-14T17:02:27.639Z,96383.31
2024-04-14T17:04:54.266Z,96380.00
2024-04-14T17:07:21.012Z,96379.81
2024-04-14T17:09:47.657Z,96378.06
2024-04-14T17:12:15.235Z,96379.03
2024-04-14T17:14:44.606Z,96381.69
2024-04-14T17:17:12.968Z,96380.75
2024-04-14T17:19:39.632Z,96374.09
2024-04-14T17:22:06.400Z,96375.28
2024-04-14T17:24:33.073Z,96365.13
2024-04-14T17:26:59.678Z,96376.97
2024-04-14T17:29:26.292Z,96367.72
2024-04-14T17:31:52.927Z,96366.78
2024-04-14T17:34:19.623Z,96364.22
2024-04-14T17:36:46.319Z,96368.59
2024-04-14T17:39:13.030Z,96361.91
2024-04-14T17:41:39.670Z,96365.53
2024-04-14T17:44:06.402Z,96361.53
2024-04-14T17:46:33.035Z,96362.69
2024-04-14T17:48:59.685Z,96362.63
2024-04-14T17:51:26.395Z,96357.28
2024-04-14T17:53:53.312Z,96361.78
2024-04-14T17:56:27.401Z,96357.88
2024-04-14T17:58:54.305Z,96358.38
2024-04-14T18:01:22.021Z,96354.41
2024-04-14T18:03:48.794Z,96348.03
2024-04-14T18:06:15.456Z,96348.97
2024-04-14T18:08:42.098Z,96345.56
2024-04-14T18:11:08.736Z,96348.31
2024-04-14T18:13:35.398Z,96346.78
2024-04-14T18:16:02.039Z,96345.72
2024-04-14T18:18:28.732Z,96347.16
2024-04-14T18:20:56.383Z,96353.94
2024-04-14T18:23:23.012Z,96352.41
2024-04-14T18:25:50.710Z,96349.47
2024-04-14T18:28:17.378Z,96355.16
2024-04-14T18:30:44.069Z,96357.88
2024-04-14T18:33:10.779Z,96354.69
2024-04-14T18:35:39.723Z,96359.94
2024-04-14T18:38:10.881Z,96360.44
2024-04-14T18:40:37.557Z,96355.19
2024-04-14T18:43:04.252Z,96363.78
2024-04-14T18:45:31.888Z,96362.47
2024-04-14T18:47:58.659Z,96356.13
2024-04-14T18:50:25.395Z,96360.66
2024-04-14T18:52:52.639Z,96355.94
2024-04-14T18:55:19.315Z,96355.69
2024-04-14T18:57:48.432Z,96348.16
2024-04-14T19:00:16.400Z,96354.25
2024-04-14T19:02:42.992Z,96353.16
2024-04-14T19:05:09.657Z,96354.38
2024-04-14T19:07:36.335Z,96357.78
2024-04-14T19:10:02.968Z,96355.31
2024-04-14T19:12:29.649Z,96357.03
2024-04-14T19:14:56.251Z,96353.81
2024-04-14T19:17:22.906Z,96353.50
2024-04-14T19:19:49.531Z,96354.53
2024-04-14T19:22:16.339Z,96358.25
2024-04-14T19:24:42.961Z,96356.03
2024-04-14T19:27:09.596Z,96356.81
2024-04-14T19:29:45.461Z,96349.38
2024-04-14T19:32:12.238Z,96356.41
2024-04-14T19:34:38.885Z,96357.84
2024-04-14T19:37:05.490Z,96357.28
2024-04-14T19:55:56.087Z,96355.88
2024-04-14T19:58:22.782Z,96359.84
2024-04-14T20:00:49.947Z,96355.41
2024-04-14T20:03:17.049Z,96355.19
2024-04-14T20:05:43.858Z,96366.16
2024-04-14T20:08:11.105Z,96352.72
2024-04-14T20:10:38.035Z,96357.75
2024-04-14T20:13:07.051Z,96354.06
2024-04-14T20:15:34.470Z,96352.38
2024-04-14T20:18:01.351Z,96347.97
2024-04-14T20:20:28.455Z,96353.81
2024-04-14T20:23:02.808Z,96346.66
2024-04-14T20:25:29.660Z,96350.69
2024-04-14T20:27:56.348Z,96346.97
2024-04-14T20:30:22.988Z,96351.63
2024-04-14T20:32:49.773Z,96359.63
2024-04-14T20:35:16.439Z,96359.53
2024-04-14T20:37:43.235Z,96352.09
2024-04-14T20:40:10.052Z,96351.59
2024-04-14T20:42:36.817Z,96349.91
2024-04-14T20:45:03.499Z,96336.50
2024-04-14T20:47:30.287Z,96332.09
2024-04-14T20:49:56.979Z,96337.22
2024-04-14T20:52:25.160Z,96340.59
2024-04-14T20:54:51.896Z,96342.13
2024-04-14T20:57:18.904Z,96336.00
2024-04-14T20:59:45.804Z,96337.47
2024-04-14T21:02:24.854Z,96339.44
2024-04-14T21:05:10.494Z,96328.69
2024-04-14T21:07:38.083Z,96332.09
2024-04-14T21:10:04.866Z,96335.00
2024-04-14T21:12:31.963Z,96326.72
2024-04-14T21:14:59.462Z,96324.50
2024-04-14T21:17:28.603Z,96326.41
2024-04-14T21:19:55.690Z,96319.63
2024-04-14T21:22:22.707Z,96316.97
2024-04-14T21:24:49.454Z,96315.25
2024-04-14T21:27:16.107Z,96317.97
2024-04-14T21:29:43.094Z,96319.88
2024-04-14T21:32:09.731Z,96321.13
2024-04-14T21:34:36.627Z,96319.16
2024-04-14T21:37:03.405Z,96317.69
2024-04-14T21:39:30.091Z,96318.25
2024-04-14T21:41:59.215Z,96314.56
2024-04-14T21:44:26.207Z,96314.59
2024-04-14T21:46:53.145Z,96311.56
2024-04-14T21:49:20.950Z,96302.94
2024-04-14T21:51:47.837Z,96308.88
2024-04-14T21:54:14.486Z,96303.63
2024-04-14T21:56:41.154Z,96307.28
2024-04-14T21:59:07.952Z,96305.13
2024-04-14T22:01:43.956Z,96303.97
2024-04-14T22:04:16.447Z,96311.28
2024-04-14T22:06:48.448Z,96300.97
2024-04-14T22:09:15.245Z,96304.13
2024-04-14T22:11:42.046Z,96307.94
2024-04-14T22:14:08.795Z,96309.69
2024-04-14T22:16:35.548Z,96309.41
2024-04-14T22:19:02.248Z,96314.31
2024-04-14T22:21:32.198Z,96314.03
2024-04-14T22:24:01.712Z,96303.50
2024-04-14T22:26:28.414Z,96302.09
2024-04-14T22:28:55.371Z,96312.28
2024-04-14T22:31:22.048Z,96301.13
2024-04-14T22:33:48.976Z,96293.34
2024-04-14T22:36:17.931Z,96296.50
2024-04-14T22:39:04.913Z,96293.47
2024-04-14T22:41:31.512Z,96302.31
2024-04-14T22:43:58.398Z,96296.97
2024-04-14T22:46:25.062Z,96300.91
2024-04-14T22:48:52.061Z,96315.44
2024-04-14T22:51:18.691Z,96301.63
2024-04-14T22:53:45.723Z,96306.31
2024-04-14T22:56:12.345Z,96292.13
2024-04-14T22:58:40.452Z,96290.34
2024-04-14T23:01:07.283Z,96285.59
2024-04-14T23:03:34.350Z,96302.22
2024-04-14T23:06:01.640Z,96302.81
2024-04-14T23:08:28.312Z,96301.72
2024-04-14T23:10:56.030Z,96300.31
2024-04-14T23:13:23.913Z,96287.09
2024-04-14T23:15:50.752Z,96291.63
2024-04-14T23:18:18.216Z,96291.47
2024-04-14T23:20:44.908Z,96288.63
2024-04-14T23:23:12.239Z,96289.44
2024-04-14T23:25:46.126Z,96282.13
2024-04-14T23:28:12.924Z,96277.78
2024-04-14T23:30:39.800Z,96274.84
2024-04-14T23:33:07.320Z,96276.16
2024-04-14T23:35:34.455Z,96271.53
2024-04-14T23:38:01.485Z,96266.53
2024-04-14T23:40:28.205Z,96264.63
2024-04-14T23:42:54.898Z,96260.88
2024-04-14T23:45:21.590Z,96262.50
2024-04-14T23:47:48.640Z,96266.47
2024-04-14T23:50:15.574Z,96264.38
2024-04-14T23:52:42.265Z,96257.94
2024-04-14T23:55:09.441Z,96257.94
2024-04-14T23:57:36.235Z,96248.16
